Time;durP1;ratioP1;P1;durP2;ratioP2;P2;SDS_P1;SDS_P2;PMS_P1;PMS_P2;Temp;Humidity;BMP_temperature;BMP_pressure;BME280_temperature;BME280_humidity;BME280_pressure;Samples;Min_cycle;Max_cycle;Signal;HPM_P1;HPM_P2
2023/06/14 00:01:52;;;;;;;2.08;1.88;;;;;;;20.28;59.32;101780.66;6197204;28;20232;-72
2023/06/14 00:05:14;;;;;;;2.67;2.45;;;;;;;20.45;58.77;101787.78;6210396;28;21173;-72
2023/06/14 00:08:34;;;;;;;4.10;2.35;;;;;;;20.48;58.59;101790.19;6210186;28;20622;-73
2023/06/14 00:11:55;;;;;;;2.22;2.03;;;;;;;20.38;58.83;101792.25;6206433;28;21769;-71
2023/06/14 00:15:17;;;;;;;3.15;1.98;;;;;;;20.48;58.23;101792.06;6207453;28;20559;-71
2023/06/14 00:18:38;;;;;;;2.50;1.88;;;;;;;20.31;58.67;101799.50;6204881;28;20559;-71
2023/06/14 00:21:59;;;;;;;4.13;1.88;;;;;;;20.10;58.67;101798.31;6224807;28;20236;-72
2023/06/14 00:25:20;;;;;;;2.90;2.08;;;;;;;20.18;58.90;101803.75;6219841;28;20231;-72
2023/06/14 00:28:41;;;;;;;2.85;2.03;;;;;;;20.05;58.93;101803.47;6213064;28;20236;-72
2023/06/14 00:32:04;;;;;;;2.63;2.28;;;;;;;20.09;59.13;101802.09;6231586;28;20560;-71
2023/06/14 00:35:25;;;;;;;3.13;2.78;;;;;;;20.30;59.01;101813.34;6210661;28;20231;-72
2023/06/14 00:38:46;;;;;;;2.58;2.38;;;;;;;20.45;58.43;101809.69;6207652;28;20496;-72
2023/06/14 00:42:07;;;;;;;2.22;2.05;;;;;;;20.28;58.41;101813.53;6214870;28;20248;-71
2023/06/14 00:45:28;;;;;;;8.32;3.42;;;;;;;20.01;59.24;101813.91;6218238;28;20318;-71
2023/06/14 00:48:51;;;;;;;2.33;2.13;;;;;;;19.76;59.06;101818.56;6212808;28;20248;-71
2023/06/14 00:52:14;;;;;;;1.70;1.60;;;;;;;19.69;60.31;101824.91;6220442;28;20240;-69
2023/06/14 00:55:35;;;;;;;2.70;2.25;;;;;;;19.59;60.41;101827.81;6214251;28;20256;-70
2023/06/14 00:58:57;;;;;;;8.15;2.50;;;;;;;19.64;60.15;101825.44;6206871;28;20236;-71
2023/06/14 01:02:18;;;;;;;3.40;1.90;;;;;;;19.60;60.58;101815.84;6236139;28;20244;-71
2023/06/14 01:05:41;;;;;;;2.38;1.73;;;;;;;19.81;60.25;101820.78;6219466;28;20236;-70
2023/06/14 01:09:10;;;;;;;3.53;1.75;;;;;;;19.51;60.66;101833.28;6207721;28;20327;-72
2023/06/14 01:12:38;;;;;;;2.60;2.13;;;;;;;19.48;60.81;101828.19;6213184;28;20263;-71
2023/06/14 01:16:00;;;;;;;2.60;2.40;;;;;;;19.36;61.39;101828.69;6213492;28;20258;-70
2023/06/14 01:19:25;;;;;;;4.20;2.08;;;;;;;19.64;60.57;101833.63;6210120;28;20228;-73
2023/06/14 01:22:52;;;;;;;4.03;2.47;;;;;;;19.43;60.82;101830.56;6214798;28;20637;-73
2023/06/14 01:26:15;;;;;;;2.95;2.38;;;;;;;19.63;61.00;101836.56;6216928;28;20237;-73
2023/06/14 01:29:38;;;;;;;2.38;2.05;;;;;;;19.50;60.57;101837.06;6212192;28;20270;-74
2023/06/14 01:32:59;;;;;;;2.50;2.05;;;;;;;19.54;61.27;101832.97;6221141;28;21143;-73
2023/06/14 01:36:23;;;;;;;4.18;2.10;;;;;;;19.70;60.79;101830.22;6204155;28;20232;-73
2023/06/14 01:39:46;;;;;;;2.97;1.92;;;;;;;19.63;60.68;101831.09;6210003;28;20256;-72
2023/06/14 01:43:08;;;;;;;2.67;2.38;;;;;;;19.58;60.80;101831.59;6203413;28;20260;-73
2023/06/14 01:46:28;;;;;;;1.88;1.77;;;;;;;19.70;60.71;101832.94;6203276;28;20232;-72
2023/06/14 01:49:50;;;;;;;3.13;2.10;;;;;;;19.46;61.08;101832.09;6215890;28;20511;-72
2023/06/14 01:53:11;;;;;;;3.45;2.38;;;;;;;19.25;61.40;101827.09;6208965;28;20319;-73
2023/06/14 01:56:33;;;;;;;1.65;1.25;;;;;;;19.20;62.11;101834.94;6210057;28;20296;-72
2023/06/14 01:59:54;;;;;;;2.83;2.58;;;;;;;19.11;62.33;101835.94;6214389;28;20563;-72
2023/06/14 02:03:15;;;;;;;4.50;2.67;;;;;;;19.08;61.97;101834.41;6218701;28;20240;-73
2023/06/14 02:06:36;;;;;;;2.83;2.00;;;;;;;18.95;62.08;101830.44;6207926;28;20328;-72
2023/06/14 02:09:57;;;;;;;8.05;2.30;;;;;;;19.22;62.31;101837.50;6182918;28;20322;-71
2023/06/14 02:13:20;;;;;;;4.45;2.03;;;;;;;19.12;62.18;101838.53;6212937;28;20229;-72
2023/06/14 02:16:48;;;;;;;3.08;1.88;;;;;;;19.28;62.28;101834.94;6175462;28;21249;-72
2023/06/14 02:20:10;;;;;;;3.55;3.10;;;;;;;19.25;62.03;101839.91;6216742;28;20236;-72
2023/06/14 02:23:31;;;;;;;3.35;3.05;;;;;;;19.21;62.42;101835.78;6217852;28;20225;-72
2023/06/14 02:26:53;;;;;;;3.20;1.83;;;;;;;19.21;62.30;101838.53;6223105;28;20328;-72
2023/06/14 02:30:16;;;;;;;5.70;2.53;;;;;;;19.31;62.04;101839.22;6223112;28;20586;-71
2023/06/14 02:33:37;;;;;;;4.50;2.25;;;;;;;19.25;62.06;101838.03;6214615;28;20232;-72
2023/06/14 02:36:59;;;;;;;2.90;2.45;;;;;;;18.79;63.13;101849.53;6222210;28;20240;-73
2023/06/14 02:40:21;;;;;;;3.58;1.92;;;;;;;18.58;63.70;101849.97;6209811;28;22205;-72
2023/06/14 02:43:42;;;;;;;2.35;2.15;;;;;;;18.63;63.35;101847.56;6211940;28;20323;-74
2023/06/14 02:47:05;;;;;;;3.45;2.08;;;;;;;18.99;63.80;101848.22;6211885;28;20233;-71
2023/06/14 02:50:28;;;;;;;2.50;2.22;;;;;;;19.00;63.38;101844.47;6211235;28;20831;-72
2023/06/14 02:53:49;;;;;;;3.75;2.17;;;;;;;18.56;64.07;101848.41;6211113;28;20271;-72
2023/06/14 02:57:10;;;;;;;2.17;1.90;;;;;;;18.54;64.17;101862.25;6214353;28;21645;-72
2023/06/14 03:00:32;;;;;;;3.40;2.00;;;;;;;18.61;64.60;101862.44;6209143;28;20316;-71
2023/06/14 03:03:54;;;;;;;2.55;2.35;;;;;;;18.94;63.77;101859.63;6213796;28;20256;-72
2023/06/14 03:07:19;;;;;;;7.43;3.90;;;;;;;19.17;63.23;101855.25;6211443;28;20232;-72
2023/06/14 03:10:43;;;;;;;2.47;1.92;;;;;;;19.19;63.23;101863.31;6209430;28;20236;-72
2023/06/14 03:14:04;;;;;;;3.53;2.17;;;;;;;19.06;62.96;101862.94;6205393;28;20252;-71
2023/06/14 03:17:29;;;;;;;3.05;2.20;;;;;;;19.05;63.39;101873.00;6208366;28;20240;-72
2023/06/14 03:20:53;;;;;;;3.17;2.17;;;;;;;19.28;62.93;101864.16;6215180;28;20236;-72
2023/06/14 03:24:16;;;;;;;3.00;2.15;;;;;;;19.52;62.37;101867.84;6215095;28;20229;-72
2023/06/14 03:27:37;;;;;;;3.85;2.63;;;;;;;19.31;62.75;101870.16;6213316;28;20487;-72
2023/06/14 03:30:59;;;;;;;2.58;2.38;;;;;;;18.78;63.69;101872.41;6223956;28;20236;-72
2023/06/14 03:34:22;;;;;;;3.03;2.38;;;;;;;19.25;63.40;101872.72;6212496;28;20232;-72
2023/06/14 03:37:44;;;;;;;3.67;2.75;;;;;;;19.23;63.30;101874.75;6213958;28;20248;-71
2023/06/14 03:41:05;;;;;;;2.42;2.20;;;;;;;18.82;64.32;101881.97;6211213;28;20288;-72
2023/06/14 03:44:27;;;;;;;4.00;2.70;;;;;;;18.72;64.62;101884.84;6210674;28;20260;-71
2023/06/14 03:47:50;;;;;;;3.42;3.13;;;;;;;18.50;65.38;101887.31;6209660;28;20229;-71
2023/06/14 03:51:11;;;;;;;3.58;3.22;;;;;;;18.80;65.21;101884.88;6223572;28;20399;-72
2023/06/14 03:54:34;;;;;;;4.38;3.35;;;;;;;19.03;64.76;101890.59;6211426;28;20570;-72
2023/06/14 03:57:55;;;;;;;7.85;3.72;;;;;;;19.23;64.31;101893.91;6214330;28;20236;-72
2023/06/14 04:01:16;;;;;;;5.10;4.43;;;;;;;19.01;64.43;101907.16;6209344;28;20240;-73
2023/06/14 04:04:37;;;;;;;8.55;7.68;;;;;;;19.11;64.36;101907.88;6209080;28;20232;-72
2023/06/14 04:08:00;;;;;;;10.60;9.40;;;;;;;18.95;64.54;101910.56;6216695;28;20232;-73
2023/06/14 04:11:22;;;;;;;4.93;4.43;;;;;;;18.91;65.09;101920.13;6218168;28;20233;-73
2023/06/14 04:14:44;;;;;;;6.18;5.53;;;;;;;19.19;64.97;101928.94;6218164;28;20237;-73
2023/06/14 04:18:06;;;;;;;6.30;5.68;;;;;;;19.17;64.52;101922.75;6217435;28;20232;-72
2023/06/14 04:21:28;;;;;;;15.18;8.05;;;;;;;19.43;64.59;101922.69;6220086;28;20653;-73
2023/06/14 04:24:52;;;;;;;6.95;4.47;;;;;;;19.16;64.32;101929.25;6220757;28;20237;-72
2023/06/14 04:28:18;;;;;;;3.50;2.95;;;;;;;19.08;64.73;101926.50;6222004;28;20787;-72
2023/06/14 04:31:39;;;;;;;3.58;3.28;;;;;;;19.22;64.96;101928.59;6219060;28;20269;-73
2023/06/14 04:35:03;;;;;;;4.90;3.20;;;;;;;19.07;64.87;101936.56;6217681;28;20688;-72
2023/06/14 04:38:27;;;;;;;3.80;2.78;;;;;;;19.09;65.34;101934.53;6218645;28;20232;-72
2023/06/14 04:41:51;;;;;;;3.33;2.83;;;;;;;19.17;65.30;101932.84;6205013;28;20244;-72
2023/06/14 04:45:15;;;;;;;3.22;2.35;;;;;;;19.53;64.76;101928.84;6215423;28;20232;-72
2023/06/14 04:48:36;;;;;;;5.03;2.70;;;;;;;19.68;64.19;101938.13;6214695;28;20232;-71
2023/06/14 04:51:59;;;;;;;5.50;3.60;;;;;;;19.90;63.64;101932.00;6201692;28;20799;-72
2023/06/14 04:55:22;;;;;;;7.07;3.72;;;;;;;19.55;63.84;101932.28;6208550;28;20758;-71
2023/06/14 04:58:44;;;;;;;5.57;2.78;;;;;;;19.33;64.27;101928.28;6208656;28;20251;-71
2023/06/14 05:02:06;;;;;;;5.30;3.33;;;;;;;19.51;64.18;101933.63;6223006;28;20240;-71
2023/06/14 05:05:28;;;;;;;3.15;2.47;;;;;;;19.68;64.12;101933.50;6221381;28;20256;-71
2023/06/14 05:08:50;;;;;;;3.63;2.70;;;;;;;19.47;64.01;101929.53;6219801;28;20240;-71
2023/06/14 05:12:11;;;;;;;5.00;2.83;;;;;;;19.66;64.06;101935.56;6225390;28;20236;-70
2023/06/14 05:15:32;;;;;;;4.78;2.30;;;;;;;19.87;63.26;101926.84;6218987;28;20232;-71
2023/06/14 05:18:54;;;;;;;2.75;2.53;;;;;;;19.84;63.07;101932.66;6217982;28;20240;-71
2023/06/14 05:22:15;;;;;;;2.63;2.20;;;;;;;19.66;63.18;101930.09;6223590;28;21185;-71
2023/06/14 05:25:37;;;;;;;4.22;2.72;;;;;;;20.00;62.76;101926.34;6219721;28;20224;-71
2023/06/14 05:28:58;;;;;;;1.63;1.52;;;;;;;20.30;61.88;101934.72;6219776;28;20233;-71
2023/06/14 05:32:19;;;;;;;3.90;2.80;;;;;;;20.32;61.13;101940.88;6209375;28;20252;-71
2023/06/14 05:35:42;;;;;;;4.70;2.80;;;;;;;20.28;61.46;101936.78;6223195;28;20232;-71
2023/06/14 05:39:04;;;;;;;3.35;2.47;;;;;;;20.26;60.73;101936.09;6217976;28;20264;-72
2023/06/14 05:42:25;;;;;;;3.58;2.42;;;;;;;20.34;60.82;101940.72;6218857;28;20236;-71
2023/06/14 05:45:48;;;;;;;2.38;1.52;;;;;;;20.78;59.86;101939.22;6208439;28;20328;-70
2023/06/14 05:49:09;;;;;;;4.00;1.92;;;;;;;21.14;58.88;101948.72;6202626;28;20240;-71
2023/06/14 05:52:31;;;;;;;2.20;1.73;;;;;;;21.05;59.12;101947.03;6207271;28;20236;-70
2023/06/14 05:55:54;;;;;;;4.03;2.28;;;;;;;21.00;59.04;101951.31;6213034;28;20244;-70
2023/06/14 05:59:15;;;;;;;2.13;1.85;;;;;;;20.80;59.19;101959.09;6210833;28;20339;-71
2023/06/14 06:02:36;;;;;;;4.03;2.33;;;;;;;20.85;59.23;101959.44;6215255;28;20237;-70
2023/06/14 06:05:59;;;;;;;8.88;2.83;;;;;;;21.05;58.47;101963.47;6210222;28;20237;-71
2023/06/14 06:09:21;;;;;;;3.72;2.22;;;;;;;20.84;59.21;101965.09;6216107;28;20861;-71
2023/06/14 06:12:43;;;;;;;2.95;2.65;;;;;;;21.33;58.75;101964.75;6215590;28;20243;-70
2023/06/14 06:16:05;;;;;;;2.88;2.17;;;;;;;21.09;57.70;101974.97;6230656;28;20702;-70
2023/06/14 06:19:26;;;;;;;2.15;1.85;;;;;;;21.36;57.79;101967.09;6226501;28;20632;-70
2023/06/14 06:22:46;;;;;;;3.88;2.60;;;;;;;21.31;57.31;101969.56;6230490;28;20315;-72
2023/06/14 06:26:09;;;;;;;3.58;2.17;;;;;;;21.44;57.08;101966.22;6221838;28;20236;-71
2023/06/14 06:29:30;;;;;;;3.03;2.70;;;;;;;21.49;56.53;101969.25;6211076;28;20509;-73
2023/06/14 06:32:51;;;;;;;5.60;2.42;;;;;;;21.60;56.52;101966.13;6221418;28;20233;-73
2023/06/14 06:36:12;;;;;;;11.40;3.53;;;;;;;21.48;56.80;101967.56;6217768;28;20240;-73
2023/06/14 06:39:32;;;;;;;3.85;2.72;;;;;;;21.23;56.29;101972.34;6214638;28;20236;-72
2023/06/14 06:42:55;;;;;;;6.63;3.13;;;;;;;21.22;56.67;101976.09;6216881;28;20241;-73
2023/06/14 06:46:18;;;;;;;2.53;2.33;;;;;;;21.48;56.60;101968.44;6215901;28;20235;-73
2023/06/14 06:49:40;;;;;;;2.15;1.95;;;;;;;21.44;55.35;101983.53;6203900;28;20240;-73
2023/06/14 06:53:01;;;;;;;2.28;2.08;;;;;;;21.51;55.96;101980.09;6214157;28;20260;-73
2023/06/14 06:56:23;;;;;;;7.78;3.05;;;;;;;21.69;55.96;101992.50;6217690;28;20236;-73
2023/06/14 06:59:45;;;;;;;2.40;2.17;;;;;;;21.96;55.91;101993.88;6210807;28;20586;-73
2023/06/14 07:03:06;;;;;;;3.92;2.20;;;;;;;22.07;55.21;101993.47;6223772;28;20260;-74
2023/06/14 07:06:27;;;;;;;3.30;1.40;;;;;;;22.03;54.57;102000.31;6222809;28;20331;-73
2023/06/14 07:09:49;;;;;;;1.52;1.42;;;;;;;21.97;54.00;101998.31;6222950;28;20232;-73
2023/06/14 07:13:09;;;;;;;2.53;1.55;;;;;;;21.98;53.25;101995.41;6218818;28;21645;-73
2023/06/14 07:16:32;;;;;;;2.10;1.60;;;;;;;22.08;53.88;101998.75;6217653;28;20233;-73
2023/06/14 07:19:53;;;;;;;2.45;2.25;;;;;;;22.06;52.74;102005.47;6221373;28;20231;-72
2023/06/14 07:23:14;;;;;;;3.97;3.47;;;;;;;22.03;52.36;102008.56;6234982;28;20252;-74
2023/06/14 07:26:36;;;;;;;1.80;1.70;;;;;;;22.02;52.99;101999.50;6224260;28;20351;-74
2023/06/14 07:29:57;;;;;;;1.65;1.55;;;;;;;22.10;52.40;101998.56;6214558;28;20228;-73
2023/06/14 07:33:19;;;;;;;2.28;2.08;;;;;;;21.86;52.96;102002.34;6215964;28;20559;-74
2023/06/14 07:36:44;;;;;;;2.47;1.98;;;;;;;21.64;52.82;102000.41;6217634;28;20263;-74
2023/06/14 07:40:06;;;;;;;3.10;1.80;;;;;;;22.03;52.80;101997.59;6221974;28;20232;-74
2023/06/14 07:43:27;;;;;;;3.70;2.38;;;;;;;22.36;52.55;101998.19;6223693;28;20232;-74
2023/06/14 07:46:50;;;;;;;1.60;1.50;;;;;;;22.52;52.35;101993.38;6219613;28;20232;-74
2023/06/14 07:50:13;;;;;;;4.47;1.85;;;;;;;22.49;51.54;101993.75;6224184;28;21734;-74
2023/06/14 07:53:34;;;;;;;2.47;2.00;;;;;;;22.59;51.71;101993.53;6217794;28;20728;-74
2023/06/14 07:56:56;;;;;;;2.08;1.70;;;;;;;22.48;51.71;101992.06;6218990;28;20602;-73
2023/06/14 08:00:18;;;;;;;2.25;1.42;;;;;;;22.84;51.80;102000.50;6215193;28;20232;-74
2023/06/14 08:03:39;;;;;;;2.13;1.92;;;;;;;23.34;51.34;101995.09;6218005;28;20500;-74
2023/06/14 08:07:01;;;;;;;2.83;2.63;;;;;;;23.50;50.77;101994.00;6218719;28;20255;-72
2023/06/14 08:10:23;;;;;;;2.30;2.10;;;;;;;23.45;49.49;101990.97;6213857;28;20233;-73
2023/06/14 08:13:44;;;;;;;2.13;1.92;;;;;;;23.36;50.17;101989.38;6212527;28;20610;-73
2023/06/14 08:17:05;;;;;;;1.73;1.63;;;;;;;23.05;50.16;101990.41;6226384;28;20236;-73
2023/06/14 08:20:26;;;;;;;1.83;1.67;;;;;;;23.50;49.50;101980.25;6228666;28;20229;-73
2023/06/14 08:23:48;;;;;;;3.72;2.65;;;;;;;23.50;49.21;101989.38;6225606;28;20232;-73
2023/06/14 08:27:09;;;;;;;2.28;1.58;;;;;;;23.51;49.29;101990.22;6224805;28;20324;-74
2023/06/14 08:30:30;;;;;;;2.58;2.28;;;;;;;23.56;49.57;101991.34;6217852;28;20236;-74
2023/06/14 08:33:51;;;;;;;2.60;1.75;;;;;;;23.41;48.30;101985.00;6221685;28;20308;-75
2023/06/14 08:37:12;;;;;;;2.08;1.88;;;;;;;23.46;48.49;101993.56;6217946;28;20255;-73
2023/06/14 08:40:38;;;;;;;2.47;2.05;;;;;;;23.56;48.46;101982.22;6220307;28;20233;-74
2023/06/14 08:43:59;;;;;;;2.88;1.83;;;;;;;23.88;47.92;101984.50;6219918;28;20261;-74
2023/06/14 08:47:20;;;;;;;3.53;1.88;;;;;;;23.95;48.66;101990.91;6214887;28;20546;-72
2023/06/14 08:50:42;;;;;;;2.38;2.03;;;;;;;23.67;48.83;101982.59;6214056;28;20232;-73
2023/06/14 08:54:03;;;;;;;2.83;2.47;;;;;;;24.03;48.04;101978.94;6211651;28;20228;-74
2023/06/14 08:57:30;;;;;;;3.72;2.65;;;;;;;24.08;47.31;101988.31;6210599;28;20252;-74
2023/06/14 09:00:52;;;;;;;8.30;2.83;;;;;;;23.49;48.00;101990.38;6212371;28;20237;-74
2023/06/14 09:04:13;;;;;;;2.45;2.15;;;;;;;23.84;47.73;101985.94;6213519;28;20252;-75
2023/06/14 09:07:34;;;;;;;2.20;1.95;;;;;;;24.08;47.69;101988.31;6214817;28;20614;-74
2023/06/14 09:10:55;;;;;;;4.32;2.05;;;;;;;24.28;47.85;101983.00;6214735;28;20972;-72
2023/06/14 09:14:18;;;;;;;1.95;1.83;;;;;;;24.58;46.59;101988.13;6217005;28;20236;-73
2023/06/14 09:17:40;;;;;;;2.08;1.83;;;;;;;24.69;47.18;101985.88;6220422;28;20228;-73
2023/06/14 09:21:00;;;;;;;3.55;2.05;;;;;;;24.92;46.94;101981.81;6218575;28;20324;-73
2023/06/14 09:24:21;;;;;;;2.88;2.25;;;;;;;24.95;46.17;101981.41;6217927;28;20244;-73
2023/06/14 09:27:42;;;;;;;2.42;2.22;;;;;;;25.15;46.04;101976.00;6218704;28;20224;-72
2023/06/14 09:31:05;;;;;;;3.03;1.90;;;;;;;25.28;45.43;101979.66;6219240;28;20224;-74
2023/06/14 09:34:26;;;;;;;1.88;1.63;;;;;;;24.98;46.36;101988.44;6219634;28;20236;-73
2023/06/14 09:37:48;;;;;;;5.53;1.75;;;;;;;25.29;46.15;101981.38;6220657;28;20237;-73
2023/06/14 09:41:09;;;;;;;4.35;1.63;;;;;;;24.70;46.21;101974.63;6219266;28;20320;-74
2023/06/14 09:44:30;;;;;;;2.75;1.65;;;;;;;24.63;46.75;101986.69;6212941;28;20228;-72
2023/06/14 09:47:52;;;;;;;3.42;2.25;;;;;;;24.83;45.74;101987.69;6223459;28;20232;-73
2023/06/14 09:51:17;;;;;;;4.75;1.92;;;;;;;24.83;45.51;101969.25;6221726;28;20233;-73
2023/06/14 09:54:42;;;;;;;2.40;2.20;;;;;;;25.07;45.62;101976.19;6225461;28;21575;-73
2023/06/14 09:58:05;;;;;;;1.95;1.75;;;;;;;25.15;45.68;101976.88;6228422;28;20236;-73
2023/06/14 10:01:30;;;;;;;3.55;2.72;;;;;;;24.93;46.09;101979.94;6223693;28;20236;-73
2023/06/14 10:05:00;;;;;;;2.40;1.50;;;;;;;25.66;45.95;101974.53;6223772;28;20319;-74
2023/06/14 10:08:26;;;;;;;2.88;2.00;;;;;;;25.91;45.02;101974.81;6226288;28;20227;-73
2023/06/14 10:11:47;;;;;;;4.85;3.95;;;;;;;26.13;43.96;101984.66;6224335;28;20263;-73
2023/06/14 10:15:10;;;;;;;3.92;3.55;;;;;;;25.61;44.22;101971.56;6224353;28;20233;-74
2023/06/14 10:18:39;;;;;;;5.00;3.55;;;;;;;25.75;44.31;101977.97;6226177;28;20237;-73
2023/06/14 10:22:05;;;;;;;2.83;2.50;;;;;;;25.66;44.42;101979.22;6220590;28;20232;-73
2023/06/14 10:25:31;;;;;;;4.00;2.53;;;;;;;25.62;45.41;101975.16;6222886;28;20941;-73
2023/06/14 10:29:02;;;;;;;3.10;1.55;;;;;;;25.93;45.16;101968.00;6224459;28;20228;-73
2023/06/14 10:32:24;;;;;;;4.00;2.10;;;;;;;25.73;44.99;101974.56;6219286;28;20240;-74
2023/06/14 10:35:45;;;;;;;5.93;2.55;;;;;;;26.57;43.82;101970.19;6223464;28;20718;-73
2023/06/14 10:39:08;;;;;;;3.25;1.98;;;;;;;26.73;43.56;101970.63;6222033;28;20240;-74
2023/06/14 10:42:33;;;;;;;2.40;2.13;;;;;;;27.03;43.26;101956.28;6223621;28;20259;-73
2023/06/14 10:46:16;;;;;;;2.45;2.13;;;;;;;26.67;43.33;101951.22;6220829;28;20232;-73
2023/06/14 10:49:43;;;;;;;2.75;2.08;;;;;;;26.61;43.06;101958.50;6223960;28;20228;-73
2023/06/14 10:53:23;;;;;;;2.30;2.13;;;;;;;27.40;41.96;101955.53;6224386;28;20331;-81
2023/06/14 10:56:49;;;;;;;2.60;2.40;;;;;;;26.36;41.82;101956.59;6217768;28;20236;-79
2023/06/14 11:00:16;;;;;;;1.90;1.77;;;;;;;26.58;43.23;101950.59;6227399;28;20535;-80
2023/06/14 11:03:51;;;;;;;3.75;2.10;;;;;;;26.76;42.36;101947.22;6220859;28;20300;-86
2023/06/14 11:07:39;;;;;;;2.60;2.15;;;;;;;25.99;43.61;101942.28;6226171;28;20224;-80
2023/06/14 11:11:01;;;;;;;3.65;1.98;;;;;;;26.03;43.62;101945.50;6227509;28;20645;-81
2023/06/14 11:14:23;;;;;;;3.10;2.10;;;;;;;27.12;43.20;101933.66;6224702;28;20236;-85
2023/06/14 11:17:53;;;;;;;2.55;2.10;;;;;;;27.60;42.01;101928.56;6221541;28;20244;-83
2023/06/14 11:21:16;;;;;;;2.83;2.10;;;;;;;27.32;41.27;101934.44;6224109;28;20231;-82
2023/06/14 11:24:37;;;;;;;3.80;2.50;;;;;;;27.23;42.29;101926.59;6221320;28;20594;-82
2023/06/14 11:28:00;;;;;;;6.07;2.53;;;;;;;26.80;41.68;101921.66;6220462;28;20224;-85
2023/06/14 11:31:23;;;;;;;2.15;1.92;;;;;;;26.36;42.01;101927.03;6212080;28;20542;-84
2023/06/14 11:34:47;;;;;;;1.75;1.50;;;;;;;26.22;42.28;101914.28;6214542;28;20239;-85
2023/06/14 11:38:08;;;;;;;6.60;2.83;;;;;;;25.82;43.00;101921.66;6234958;28;20339;-83
2023/06/14 11:41:34;;;;;;;2.60;2.40;;;;;;;26.10;43.11;101916.81;6224622;28;20848;-86
2023/06/14 11:44:55;;;;;;;2.42;2.22;;;;;;;26.65;42.70;101909.94;6228116;28;20245;-86
2023/06/14 11:48:24;;;;;;;2.40;1.80;;;;;;;26.21;43.77;101920.00;6217257;28;20236;-80
2023/06/14 11:51:45;;;;;;;1.98;1.80;;;;;;;26.06;43.51;101911.88;6224383;28;20236;-82
2023/06/14 11:55:07;;;;;;;3.85;1.77;;;;;;;26.76;42.90;101902.94;6224397;28;20232;-82
2023/06/14 11:58:30;;;;;;;2.30;2.10;;;;;;;27.26;41.82;101896.56;6222354;28;20535;-81
2023/06/14 12:01:51;;;;;;;2.00;1.90;;;;;;;27.39;42.12;101893.72;6224391;28;20244;-83
2023/06/14 12:05:13;;;;;;;4.40;2.40;;;;;;;27.25;41.97;101907.84;6217145;28;20240;-79
2023/06/14 12:08:39;;;;;;;2.22;2.03;;;;;;;27.33;41.33;101896.50;6215406;28;20228;-82
2023/06/14 12:12:01;;;;;;;4.72;2.20;;;;;;;27.75;40.57;101897.75;6220698;28;20630;-84
2023/06/14 12:15:23;;;;;;;2.85;1.42;;;;;;;28.59;39.90;101889.81;6223330;28;20237;-85
2023/06/14 12:18:45;;;;;;;4.57;1.95;;;;;;;27.63;41.02;101884.66;6225265;28;20312;-81
2023/06/14 12:22:10;;;;;;;2.67;2.42;;;;;;;26.87;41.52;101889.25;6224682;28;20296;-80
2023/06/14 12:25:33;;;;;;;2.53;2.33;;;;;;;27.17;41.34;101891.47;6231080;28;20311;-81
2023/06/14 12:28:54;;;;;;;3.17;2.00;;;;;;;27.36;40.86;101876.72;6241455;28;20239;-80
2023/06/14 12:32:16;;;;;;;3.65;1.80;;;;;;;27.53;40.52;101889.84;6230955;28;20240;-79
2023/06/14 12:35:41;;;;;;;1.85;1.65;;;;;;;27.11;41.06;101882.13;6229129;28;20241;-83
2023/06/14 12:39:04;;;;;;;5.00;1.85;;;;;;;26.84;41.27;101891.63;6227764;28;21105;-81
2023/06/14 12:42:25;;;;;;;8.95;2.47;;;;;;;26.80;41.88;101890.34;6229446;28;20228;-79
2023/06/14 12:45:46;;;;;;;8.82;1.95;;;;;;;27.54;41.17;101887.88;6225428;28;20236;-78
2023/06/14 12:49:09;;;;;;;7.85;2.78;;;;;;;27.83;40.21;101875.34;6244763;28;20232;-83
2023/06/14 12:52:30;;;;;;;4.32;2.28;;;;;;;28.46;39.20;101872.22;6229343;28;20240;-79
2023/06/14 12:55:52;;;;;;;11.00;9.90;;;;;;;28.94;39.21;101883.44;6224880;28;20228;-79
2023/06/14 12:59:12;;;;;;;4.57;2.30;;;;;;;28.60;38.73;101861.00;6220582;28;20319;-79
2023/06/14 13:02:34;;;;;;;4.40;2.50;;;;;;;29.18;38.39;101867.78;6235482;28;20240;-78
2023/06/14 13:05:55;;;;;;;3.63;1.98;;;;;;;29.36;38.53;101855.75;6231776;28;20249;-78
2023/06/14 13:09:16;;;;;;;3.72;2.22;;;;;;;29.29;38.33;101868.91;6233680;28;20240;-79
2023/06/14 13:12:38;;;;;;;2.55;2.35;;;;;;;29.23;37.97;101879.88;6227890;28;21080;-80
2023/06/14 13:16:00;;;;;;;2.28;2.08;;;;;;;28.69;38.08;101873.47;6227473;28;20304;-79
2023/06/14 13:19:21;;;;;;;5.93;5.32;;;;;;;28.75;38.14;101872.56;6229524;28;20232;-77
2023/06/14 13:22:42;;;;;;;2.35;2.13;;;;;;;30.22;36.53;101870.00;6229821;28;20685;-80
2023/06/14 13:26:03;;;;;;;3.38;2.25;;;;;;;32.50;33.66;101875.22;6227566;28;20233;-80
2023/06/14 13:29:26;;;;;;;3.53;2.40;;;;;;;33.73;31.71;101866.97;6230987;28;20328;-77
2023/06/14 13:32:48;;;;;;;2.08;1.88;;;;;;;34.51;30.03;101860.66;6226825;28;20783;-82
2023/06/14 13:36:10;;;;;;;1.70;1.60;;;;;;;35.42;28.92;101855.47;6225809;28;20543;-80
2023/06/14 13:39:31;;;;;;;4.80;1.88;;;;;;;35.83;28.74;101859.19;6228976;28;20283;-82
2023/06/14 13:42:51;;;;;;;2.00;1.90;;;;;;;35.95;28.70;101868.19;6214426;28;20232;-84
2023/06/14 13:46:14;;;;;;;1.13;1.10;;;;;;;34.32;30.03;101853.78;6239521;28;20738;-79
2023/06/14 13:49:35;;;;;;;4.15;2.00;;;;;;;31.34;33.46;101850.81;6228816;28;20241;-78
2023/06/14 13:52:56;;;;;;;2.17;1.98;;;;;;;29.49;35.72;101864.78;6230313;28;20610;-81
2023/06/14 13:56:18;;;;;;;2.00;1.88;;;;;;;31.60;33.51;101856.91;6228777;28;20229;-79
2023/06/14 13:59:39;;;;;;;3.10;2.15;;;;;;;32.59;32.43;101853.25;6231470;28;20730;-86
2023/06/14 14:03:03;;;;;;;3.50;2.00;;;;;;;32.46;32.43;101851.69;6229661;28;20542;-80
2023/06/14 14:06:24;;;;;;;2.30;2.10;;;;;;;32.50;31.58;101835.28;6243957;28;20256;-80
2023/06/14 14:09:45;;;;;;;5.47;4.38;;;;;;;32.25;32.25;101830.97;6231830;28;20595;-77
2023/06/14 14:13:05;;;;;;;3.55;3.03;;;;;;;32.03;33.15;101834.78;6238862;28;20244;-79
2023/06/14 14:16:27;;;;;;;3.40;2.33;;;;;;;30.71;34.71;101842.50;6228177;28;20220;-78
2023/06/14 14:19:49;;;;;;;2.30;1.85;;;;;;;29.57;35.71;101836.63;6224679;28;20244;-79
2023/06/14 14:23:10;;;;;;;4.93;2.55;;;;;;;28.36;37.04;101835.81;6219414;28;20854;-78
2023/06/14 14:26:31;;;;;;;3.08;2.00;;;;;;;27.62;38.21;101844.13;6206112;28;20232;-78
2023/06/14 14:29:52;;;;;;;3.05;2.00;;;;;;;28.33;37.76;101846.50;6218654;28;20232;-77
2023/06/14 14:33:15;;;;;;;3.67;1.70;;;;;;;29.53;36.64;101856.78;6230087;28;20508;-80
2023/06/14 14:36:42;;;;;;;4.57;2.13;;;;;;;28.86;36.66;101853.22;6223386;28;20807;-77
2023/06/14 14:40:03;;;;;;;2.95;2.65;;;;;;;29.61;35.84;101850.88;6224300;28;20240;-79
2023/06/14 14:43:24;;;;;;;5.80;1.95;;;;;;;29.78;35.31;101850.00;6222637;28;20260;-77
2023/06/14 14:46:45;;;;;;;2.20;1.70;;;;;;;29.82;34.82;101844.81;6213636;28;20228;-77
2023/06/14 14:50:08;;;;;;;3.47;2.33;;;;;;;30.11;34.86;101856.91;6226886;28;20241;-76
2023/06/14 14:53:30;;;;;;;2.88;1.85;;;;;;;30.22;34.85;101850.53;6227355;28;20220;-77
2023/06/14 14:56:51;;;;;;;4.65;2.17;;;;;;;30.49;34.30;101848.97;6225106;28;20247;-77
2023/06/14 15:00:13;;;;;;;2.03;1.88;;;;;;;30.67;34.68;101846.03;6222314;28;20247;-79
2023/06/14 15:03:34;;;;;;;1.83;1.63;;;;;;;30.36;34.70;101855.63;6237044;28;20308;-81
2023/06/14 15:06:55;;;;;;;1.98;1.80;;;;;;;29.95;34.48;101855.72;6224701;28;21136;-77
2023/06/14 15:10:17;;;;;;;3.03;2.20;;;;;;;29.91;34.63;101844.22;6221848;28;20319;-80
2023/06/14 15:13:38;;;;;;;5.10;4.57;;;;;;;30.56;34.59;101838.56;6221924;28;20316;-83
2023/06/14 15:17:01;;;;;;;5.32;3.72;;;;;;;30.63;34.24;101839.25;6219332;28;20248;-78
2023/06/14 15:20:22;;;;;;;2.72;2.53;;;;;;;30.50;33.49;101847.91;6221786;28;20260;-81
2023/06/14 15:23:44;;;;;;;3.47;2.80;;;;;;;29.93;34.25;101844.84;6205786;28;20232;-86
2023/06/14 15:27:06;;;;;;;3.38;3.08;;;;;;;30.24;33.81;101848.34;6212590;28;20228;-81
2023/06/14 15:30:27;;;;;;;5.05;3.70;;;;;;;30.34;34.45;101852.25;6224019;28;20741;-77
2023/06/14 15:33:48;;;;;;;8.43;7.40;;;;;;;30.67;34.34;101838.53;6214193;28;20237;-80
2023/06/14 15:37:09;;;;;;;7.88;3.83;;;;;;;30.35;34.25;101841.97;6213661;28;20224;-79
2023/06/14 15:40:30;;;;;;;3.42;2.90;;;;;;;30.14;33.79;101854.53;6210035;28;20316;-80